createdAt,value
2019-04-27T00:01:13.705Z,77.23
2019-04-27T00:04:04.146Z,78.51
2019-04-27T00:06:43.025Z,76.20
2019-04-27T00:09:26.306Z,77.21
2019-04-27T00:11:59.012Z,77.75
2019-04-27T00:14:29.802Z,77.47
2019-04-27T00:17:33.099Z,77.51
2019-04-27T00:20:10.444Z,78.04
2019-04-27T00:22:43.588Z,78.23
2019-04-27T00:25:14.498Z,76.83
2019-04-27T00:27:45.274Z,75.85
2019-04-27T00:30:17.170Z,76.53
2019-04-27T00:32:47.951Z,75.77
2019-04-27T00:35:20.638Z,74.98
2019-04-27T00:37:53.310Z,73.76
2019-04-27T00:40:26.008Z,75.00
2019-04-27T00:42:56.820Z,75.97
2019-04-27T00:45:27.592Z,74.61
2019-04-27T00:47:59.788Z,73.71
2019-04-27T00:50:30.875Z,74.07
2019-04-27T00:53:03.290Z,74.17
2019-04-27T00:55:36.222Z,74.48
2019-04-27T00:58:08.900Z,74.29
2019-04-27T01:00:47.243Z,74.26
2019-04-27T01:03:19.920Z,75.58
2019-04-27T01:05:50.752Z,75.11
2019-04-27T01:08:22.940Z,75.40
2019-04-27T01:10:53.873Z,75.29
2019-04-27T01:13:24.591Z,74.62
2019-04-27T01:15:55.368Z,74.14
2019-04-27T01:18:26.143Z,75.39
2019-04-27T01:20:56.906Z,75.14
2019-04-27T01:23:29.334Z,74.95
2019-04-27T01:26:09.625Z,76.95
2019-04-27T01:28:49.016Z,77.10
2019-04-27T01:31:21.237Z,77.30
2019-04-27T01:33:52.249Z,76.99
2019-04-27T01:36:23.279Z,75.45
2019-04-27T01:38:54.033Z,74.95
2019-04-27T01:41:24.831Z,74.08
2019-04-27T01:43:55.712Z,71.23
2019-04-27T01:47:19.213Z,71.08
2019-04-27T01:49:58.481Z,71.08
2019-04-27T01:52:34.742Z,100.00
2019-04-27T01:55:05.716Z,71.08
2019-04-27T01:57:36.491Z,73.07
2019-04-27T02:00:33.912Z,73.53
2019-04-27T02:03:08.503Z,74.89
2019-04-27T02:05:41.413Z,76.81
2019-04-27T02:08:12.212Z,75.32
2019-04-27T02:10:43.197Z,74.78
2019-04-27T02:13:13.989Z,78.53
2019-04-27T02:15:44.776Z,78.53
2019-04-27T02:18:15.555Z,78.64
2019-04-27T02:20:46.341Z,79.57
2019-04-27T02:23:17.153Z,80.12
2019-04-27T02:25:49.675Z,81.04
2019-04-27T02:28:34.931Z,80.18
2019-04-27T02:31:13.238Z,79.56
2019-04-27T02:33:50.053Z,80.52
2019-04-27T02:36:20.992Z,80.64
2019-04-27T02:38:51.777Z,78.31
2019-04-27T02:41:22.552Z,77.91
2019-04-27T02:43:55.241Z,79.20
2019-04-27T02:46:26.230Z,78.09
2019-04-27T02:49:03.576Z,79.62
2019-04-27T02:51:31.595Z,79.76
2019-04-27T02:54:02.375Z,79.45
2019-04-27T02:56:33.165Z,78.18
2019-04-27T02:59:03.960Z,77.74
2019-04-27T03:01:53.452Z,79.40
2019-04-27T03:04:24.533Z,79.77
2019-04-27T03:06:55.296Z,79.60
2019-04-27T03:09:26.086Z,80.64
2019-04-27T03:11:59.465Z,80.32
2019-04-27T03:14:50.612Z,80.58
2019-04-27T03:17:39.669Z,79.20
2019-04-27T03:20:20.135Z,78.37
2019-04-27T03:22:56.114Z,79.84
2019-04-27T03:25:31.903Z,79.80
2019-04-27T03:28:06.497Z,78.60
2019-04-27T03:30:41.743Z,78.25
2019-04-27T03:33:11.938Z,80.49
2019-04-27T03:35:43.938Z,78.57
2019-04-27T03:38:15.156Z,79.76
2019-04-27T03:40:45.939Z,81.03
2019-04-27T03:43:19.946Z,80.38
2019-04-27T03:45:52.440Z,80.05
2019-04-27T03:48:23.514Z,80.79
2019-04-27T03:50:56.199Z,78.71
2019-04-27T03:53:34.696Z,79.36
2019-04-27T03:56:24.020Z,78.49
2019-04-27T03:58:56.726Z,79.81
2019-04-27T04:01:27.529Z,81.27
2019-04-27T04:03:59.883Z,81.08
2019-04-27T04:06:31.002Z,81.69
2019-04-27T04:09:03.780Z,80.34
2019-04-27T04:11:45.351Z,80.04
2019-04-27T04:14:20.136Z,80.83
2019-04-27T04:16:52.636Z,80.50
2019-04-27T04:19:23.429Z,79.80
2019-04-27T04:21:54.221Z,82.01
2019-04-27T04:24:28.391Z,81.94
2019-04-27T04:26:59.976Z,81.67
2019-04-27T04:29:30.770Z,79.53
2019-04-27T04:32:01.634Z,79.44
2019-04-27T04:34:32.419Z,80.68
2019-04-27T04:37:03.197Z,81.20
2019-04-27T04:39:33.974Z,81.52
2019-04-27T04:42:21.810Z,81.27
2019-04-27T04:45:00.596Z,80.61
2019-04-27T04:47:45.242Z,79.46
2019-04-27T04:50:16.028Z,79.55
2019-04-27T04:52:46.801Z,80.23
2019-04-27T04:55:20.125Z,78.69
2019-04-27T04:57:50.282Z,80.76
2019-04-27T05:00:21.066Z,79.15
2019-04-27T05:02:51.850Z,79.33
2019-04-27T05:05:22.636Z,79.67
2019-04-27T05:07:53.400Z,79.82
2019-04-27T05:10:25.028Z,80.53
2019-04-27T05:12:55.825Z,80.60
2019-04-27T05:15:26.865Z,79.81
2019-04-27T05:17:59.086Z,80.91
2019-04-27T05:20:34.724Z,78.80
2019-04-27T05:23:05.523Z,77.98
2019-04-27T05:25:36.307Z,77.83
2019-04-27T05:28:07.104Z,77.60
2019-04-27T05:30:39.105Z,78.59
2019-04-27T05:33:10.114Z,79.81
2019-04-27T05:35:41.199Z,81.05
2019-04-27T05:38:13.569Z,80.74
2019-04-27T05:40:44.574Z,76.94
2019-04-27T05:43:17.237Z,78.21
2019-04-27T05:46:19.027Z,77.88
2019-04-27T05:48:49.974Z,78.11
2019-04-27T05:51:20.748Z,77.89
2019-04-27T05:53:51.519Z,77.35
2019-04-27T05:56:22.323Z,78.52
2019-04-27T05:58:53.068Z,79.19
2019-04-27T06:01:23.835Z,80.37
2019-04-27T06:03:54.626Z,81.18
2019-04-27T06:06:25.445Z,79.81
2019-04-27T06:08:56.207Z,80.84
2019-04-27T06:11:28.651Z,79.40
2019-04-27T06:14:11.002Z,80.91
2019-04-27T06:16:59.978Z,80.91
2019-04-27T06:19:30.754Z,80.91
2019-04-27T06:23:16.530Z,76.77
2019-04-27T06:25:55.147Z,76.77
2019-04-27T06:29:46.123Z,76.77
2019-04-27T06:32:16.935Z,76.77
2019-04-27T06:38:02.256Z,100.00
2019-04-27T06:41:03.900Z,76.77
2019-04-27T06:50:35.496Z,100.00
2019-04-27T06:59:28.876Z,76.77
2019-04-27T07:02:08.696Z,100.00
2019-04-27T07:11:49.487Z,100.00
2019-04-27T07:22:34.808Z,100.00
2019-04-27T07:27:12.697Z,76.77
2019-04-27T07:34:23.065Z,100.00
2019-04-27T07:45:49.414Z,100.00
2019-04-27T07:50:51.353Z,58.34
2019-04-27T07:54:01.233Z,76.77
2019-04-27T08:01:03.670Z,100.00
2019-04-27T08:17:42.864Z,76.77
2019-04-27T08:20:43.869Z,100.00
2019-04-27T08:28:01.865Z,100.00
2019-04-27T08:30:45.949Z,100.00
2019-04-27T08:33:50.952Z,100.00
2019-04-27T08:38:28.945Z,100.00
2019-04-27T08:41:10.414Z,100.00
2019-04-27T08:44:49.700Z,76.77
2019-04-27T08:48:39.656Z,76.77
2019-04-27T08:52:50.137Z,76.77
2019-04-27T08:55:59.202Z,76.77
2019-04-27T09:02:00.790Z,76.77
2019-04-27T10:03:27.657Z,100.00
2019-04-27T10:06:00.311Z,76.77
2019-04-27T10:08:52.041Z,76.77
2019-04-27T10:11:27.443Z,76.77
2019-04-27T10:14:01.839Z,76.77
2019-04-27T10:16:36.682Z,100.00
2019-04-27T10:19:28.723Z,76.77
2019-04-27T10:22:22.812Z,76.77
2019-04-27T10:24:58.608Z,100.00
2019-04-27T10:28:39.875Z,76.77
2019-04-27T10:31:17.046Z,76.77
2019-04-27T10:34:01.610Z,76.77
2019-04-27T10:37:01.468Z,100.00
2019-04-27T10:40:53.483Z,76.77
2019-04-27T10:43:31.362Z,76.77
2019-04-27T10:46:08.156Z,76.77
2019-04-27T10:48:39.023Z,76.77
2019-04-27T10:51:17.898Z,100.00
2019-04-27T10:54:02.632Z,76.77
2019-04-27T10:56:41.132Z,76.77
2019-04-27T11:01:56.009Z,76.77
2019-04-27T11:05:25.697Z,100.00
2019-04-27T11:09:56.906Z,76.77
2019-04-27T11:12:56.060Z,100.00
2019-04-27T11:16:51.438Z,100.00
2019-04-27T11:25:08.570Z,76.77
2019-04-27T11:32:23.583Z,100.00
2019-04-27T11:35:37.227Z,100.00
2019-04-27T11:38:48.808Z,76.77
2019-04-27T11:42:01.525Z,76.77
2019-04-27T11:45:30.567Z,76.77
2019-04-27T11:50:14.424Z,100.00
2019-04-27T11:59:41.023Z,76.77
2019-04-27T12:04:16.196Z,100.00
2019-04-27T12:06:51.244Z,100.00
2019-04-27T12:09:52.734Z,76.77
2019-04-27T12:13:12.876Z,76.77
2019-04-27T12:16:22.085Z,76.77
2019-04-27T12:18:56.400Z,76.77
2019-04-27T12:21:31.166Z,76.77
2019-04-27T12:24:18.420Z,76.77
2019-04-27T12:27:45.969Z,76.77
2019-04-27T12:30:23.211Z,100.00
2019-04-27T12:32:55.822Z,76.77
2019-04-27T12:35:44.459Z,76.77
2019-04-27T12:38:20.317Z,76.77
2019-04-27T12:41:26.264Z,76.77
2019-04-27T12:45:23.095Z,76.77
2019-04-27T12:48:20.377Z,76.77
2019-04-27T12:54:26.319Z,76.77
2019-04-27T12:57:15.986Z,76.77
2019-04-27T12:59:57.609Z,76.77
2019-04-27T13:02:42.094Z,76.77
2019-04-27T13:05:15.690Z,76.77
2019-04-27T13:09:57.143Z,76.77
2019-04-27T13:12:40.452Z,76.77
2019-04-27T13:15:11.538Z,76.77
2019-04-27T13:17:42.545Z,46.52
2019-04-27T13:20:48.969Z,46.52
2019-04-27T13:23:20.291Z,46.52
2019-04-27T13:25:53.483Z,46.52
2019-04-27T13:28:29.438Z,46.52
2019-04-27T13:31:00.237Z,46.52
2019-04-27T13:33:58.031Z,46.52
2019-04-27T13:36:32.982Z,46.52
2019-04-27T13:51:31.293Z,100.00
2019-04-27T13:54:21.520Z,46.52
2019-04-27T13:59:21.872Z,100.00
2019-04-27T14:01:58.649Z,100.00
2019-04-27T14:11:11.912Z,46.52
2019-04-27T14:14:10.760Z,46.52
2019-04-27T14:16:48.782Z,46.52
2019-04-27T14:19:51.840Z,46.52
2019-04-27T14:23:35.736Z,46.52
2019-04-27T14:26:53.625Z,46.52
2019-04-27T14:30:19.807Z,46.52
2019-04-27T14:35:47.964Z,100.00
2019-04-27T14:40:15.108Z,46.52
2019-04-27T14:44:07.775Z,46.52
2019-04-27T14:47:08.153Z,46.52
2019-04-27T14:50:29.443Z,46.52
2019-04-27T14:53:08.695Z,46.52
2019-04-27T14:55:40.150Z,46.52
2019-04-27T14:58:11.905Z,46.52
2019-04-27T15:00:43.315Z,46.52
2019-04-27T15:03:18.919Z,100.00
2019-04-27T15:05:53.645Z,100.00
2019-04-27T15:11:34.652Z,100.00
2019-04-27T15:14:09.080Z,100.00
2019-04-27T15:16:42.627Z,100.00
2019-04-27T15:19:40.888Z,100.00
2019-04-27T15:22:19.720Z,46.52
2019-04-27T15:29:13.352Z,46.52
2019-04-27T15:32:33.604Z,46.52
2019-04-27T15:35:50.577Z,46.52
2019-04-27T15:39:05.887Z,46.52
2019-04-27T15:42:51.225Z,46.52
2019-04-27T15:45:33.321Z,46.52
2019-04-27T15:48:04.108Z,46.52
2019-04-27T15:50:34.977Z,42.26
2019-04-27T15:53:09.849Z,43.15
2019-04-27T15:55:39.567Z,44.37
2019-04-27T15:58:10.519Z,45.17
2019-04-27T16:00:41.408Z,43.93
2019-04-27T16:03:12.182Z,45.46
2019-04-27T16:05:42.966Z,45.93
2019-04-27T16:08:15.695Z,44.99
2019-04-27T16:10:48.624Z,45.05
2019-04-27T16:13:19.558Z,46.38
2019-04-27T16:15:53.977Z,44.98
2019-04-27T16:18:24.468Z,44.63
2019-04-27T16:20:55.842Z,44.63
2019-04-27T16:23:28.229Z,44.11
2019-04-27T16:26:00.469Z,45.20
2019-04-27T16:28:32.209Z,45.96
2019-04-27T16:31:03.347Z,46.03
2019-04-27T16:33:34.347Z,45.91
2019-04-27T16:36:06.980Z,46.46
2019-04-27T16:38:42.514Z,46.46
2019-04-27T16:41:13.284Z,45.82
2019-04-27T16:43:45.677Z,45.36
2019-04-27T16:46:16.527Z,47.31
2019-04-27T16:48:47.314Z,45.26
2019-04-27T16:51:18.469Z,44.31
2019-04-27T16:53:49.381Z,45.15
2019-04-27T16:56:20.866Z,44.42
2019-04-27T16:58:56.796Z,42.12
2019-04-27T17:01:30.004Z,43.19
2019-04-27T17:03:59.548Z,43.19
2019-04-27T17:06:30.474Z,41.89
2019-04-27T17:09:06.772Z,41.94
2019-04-27T17:11:34.002Z,43.03
2019-04-27T17:14:08.166Z,42.85
2019-04-27T17:16:59.315Z,42.98
2019-04-27T17:19:35.836Z,43.15
2019-04-27T17:22:10.462Z,43.85
2019-04-27T17:24:46.705Z,45.38
2019-04-27T17:27:16.352Z,44.98
2019-04-27T17:29:50.010Z,45.70
2019-04-27T17:32:25.625Z,46.12
2019-04-27T17:34:55.621Z,45.05
2019-04-27T17:37:32.260Z,45.41
2019-04-27T17:40:00.891Z,44.87
2019-04-27T17:42:31.931Z,46.21
2019-04-27T17:45:05.214Z,46.68
2019-04-27T17:47:35.982Z,47.15
2019-04-27T17:50:06.968Z,48.11
2019-04-27T17:52:38.116Z,47.00
2019-04-27T17:55:10.504Z,47.61
2019-04-27T17:57:41.264Z,48.09
2019-04-27T18:00:12.540Z,47.45
2019-04-27T18:02:43.338Z,47.70
2019-04-27T18:05:15.087Z,47.77
2019-04-27T18:07:45.892Z,48.23
2019-04-27T18:10:22.986Z,49.35
2019-04-27T18:12:50.153Z,50.02
2019-04-27T18:15:20.920Z,49.15
2019-04-27T18:17:53.597Z,49.17
2019-04-27T18:20:25.579Z,49.93
2019-04-27T18:22:58.268Z,51.13
2019-04-27T18:25:30.969Z,57.70
2019-04-27T18:28:08.029Z,60.72
2019-04-27T18:30:52.549Z,65.20
2019-04-27T18:33:23.298Z,66.88
2019-04-27T18:35:58.863Z,67.21
2019-04-27T18:38:30.780Z,67.71
2019-04-27T18:41:02.971Z,68.55
2019-04-27T18:43:32.160Z,69.08
2019-04-27T18:46:03.228Z,73.07
2019-04-27T18:48:49.477Z,73.20
2019-04-27T18:51:38.488Z,71.37
2019-04-27T18:54:09.362Z,73.02
2019-04-27T18:56:41.677Z,74.72
2019-04-27T18:59:12.555Z,72.02
2019-04-27T19:01:43.348Z,71.31
2019-04-27T19:04:14.111Z,71.80
2019-04-27T19:06:44.914Z,69.82
2019-04-27T19:09:16.086Z,69.08
2019-04-27T19:11:54.901Z,71.36
2019-04-27T19:14:19.683Z,71.05
2019-04-27T19:16:50.458Z,72.29
2019-04-27T19:19:21.226Z,69.97
2019-04-27T19:21:52.012Z,70.25
2019-04-27T19:24:22.825Z,73.30
2019-04-27T19:27:01.663Z,72.44
2019-04-27T19:29:34.448Z,73.55
2019-04-27T19:32:05.364Z,73.24
2019-04-27T19:34:36.116Z,73.59
2019-04-27T19:37:08.179Z,74.67
2019-04-27T19:39:39.480Z,73.11
2019-04-27T19:42:10.318Z,71.76
2019-04-27T19:44:41.088Z,73.93
2019-04-27T19:47:11.922Z,74.42
2019-04-27T19:49:42.697Z,73.78
2019-04-27T19:52:13.468Z,74.37
2019-04-27T19:54:44.258Z,76.68
2019-04-27T19:57:15.040Z,73.96
2019-04-27T19:59:48.922Z,75.06
2019-04-27T20:02:20.439Z,74.16
2019-04-27T20:04:53.167Z,74.82
2019-04-27T20:07:23.964Z,75.09
2019-04-27T20:09:59.013Z,74.33
2019-04-27T20:12:31.371Z,75.13
2019-04-27T20:15:04.590Z,72.20
2019-04-27T20:17:35.419Z,73.48
2019-04-27T20:20:06.183Z,73.24
2019-04-27T20:22:36.959Z,72.88
2019-04-27T20:25:07.835Z,75.01
2019-04-27T20:27:46.730Z,72.69
2019-04-27T20:30:12.705Z,72.28
2019-04-27T20:32:43.483Z,72.62
2019-04-27T20:35:14.270Z,73.48
2019-04-27T20:37:45.038Z,71.95
2019-04-27T20:40:15.917Z,74.73
2019-04-27T20:42:46.692Z,74.39
2019-04-27T20:45:17.465Z,73.31
2019-04-27T20:47:48.245Z,72.44
2019-04-27T20:50:19.027Z,72.13
2019-04-27T20:52:51.729Z,73.01
2019-04-27T20:55:22.685Z,74.50
2019-04-27T20:58:01.779Z,73.65
2019-04-27T21:00:26.128Z,73.37
2019-04-27T21:03:15.623Z,74.27
2019-04-27T21:05:57.485Z,72.92
2019-04-27T21:08:31.109Z,73.53
2019-04-27T21:11:01.974Z,75.75
2019-04-27T21:13:32.758Z,74.61
2019-04-27T21:16:03.558Z,75.03
2019-04-27T21:18:36.563Z,75.54
2019-04-27T21:21:07.339Z,76.34
2019-04-27T21:23:38.226Z,76.18
2019-04-27T21:26:09.301Z,75.94
2019-04-27T21:28:42.967Z,74.59
2019-04-27T21:31:13.055Z,73.10
2019-04-27T21:33:43.827Z,73.63
2019-04-27T21:36:14.612Z,76.17
2019-04-27T21:38:45.419Z,75.96
2019-04-27T21:41:16.199Z,75.94
2019-04-27T21:43:46.972Z,72.18
2019-04-27T21:46:17.740Z,73.86
2019-04-27T21:48:48.548Z,73.57
2019-04-27T21:51:19.310Z,73.92
2019-04-27T21:53:57.833Z,73.67
2019-04-27T21:56:28.593Z,75.34
2019-04-27T21:59:01.033Z,78.87
2019-04-27T22:01:32.732Z,80.33
2019-04-27T22:04:03.652Z,80.97
2019-04-27T22:06:34.413Z,79.95
2019-04-27T22:09:09.772Z,77.85
2019-04-27T22:11:40.932Z,78.89
2019-04-27T22:14:11.922Z,78.75
2019-04-27T22:16:42.678Z,80.19
2019-04-27T22:19:13.452Z,79.94
2019-04-27T22:21:44.218Z,78.45
2019-04-27T22:24:16.928Z,80.75
2019-04-27T22:26:47.774Z,79.91
2019-04-27T22:29:18.695Z,77.71
2019-04-27T22:31:51.401Z,77.46
2019-04-27T22:34:22.381Z,78.18
2019-04-27T22:36:53.149Z,76.28
2019-04-27T22:39:28.575Z,77.10
2019-04-27T22:42:11.950Z,76.99
2019-04-27T22:44:44.687Z,77.17
2019-04-27T22:47:15.462Z,77.62
2019-04-27T22:49:46.237Z,77.74
2019-04-27T22:52:42.058Z,100.00
2019-04-27T22:55:12.844Z,79.01
2019-04-27T22:58:01.882Z,79.03
2019-04-27T23:00:55.649Z,100.00
2019-04-27T23:03:53.420Z,100.00
2019-04-27T23:09:58.767Z,79.03
2019-04-27T23:18:00.057Z,79.03
2019-04-27T23:35:28.224Z,79.03
2019-04-27T23:54:42.712Z,100.00
2019-04-27T23:58:10.706Z,100.00
